createdAt,value
2023-01-31T00:01:58.673Z,17.50
2023-01-31T00:04:26.865Z,24.40
2023-01-31T00:06:54.666Z,24.60
2023-01-31T00:09:22.618Z,18.00
2023-01-31T00:11:50.654Z,15.10
2023-01-31T00:14:20.402Z,22.90
2023-01-31T00:16:48.386Z,22.70
2023-01-31T00:19:16.511Z,18.60
2023-01-31T00:21:45.445Z,21.20
2023-01-31T00:24:14.777Z,23.70
2023-01-31T00:26:43.111Z,21.00
2023-01-31T00:29:11.602Z,15.10
2023-01-31T00:31:40.124Z,15.70
2023-01-31T00:34:08.752Z,17.40
2023-01-31T00:36:37.988Z,16.00
2023-01-31T00:39:08.695Z,13.80
2023-01-31T00:41:38.613Z,10.70
2023-01-31T00:44:07.808Z,16.90
2023-01-31T00:46:36.623Z,16.30
2023-01-31T00:49:05.374Z,14.20
2023-01-31T00:51:34.363Z,20.70
2023-01-31T00:54:02.853Z,14.40
2023-01-31T00:56:30.882Z,15.40
2023-01-31T00:58:58.936Z,13.50
2023-01-31T01:01:29.193Z,11.70
2023-01-31T01:03:58.381Z,15.40
2023-01-31T01:06:26.875Z,14.10
2023-01-31T01:08:56.420Z,18.20
2023-01-31T01:11:28.920Z,16.80
2023-01-31T01:13:58.743Z,14.00
2023-01-31T01:16:32.902Z,44.90
2023-01-31T01:19:03.384Z,27.60
2023-01-31T01:21:39.618Z,19.00
2023-01-31T01:24:15.446Z,13.20
2023-01-31T01:26:44.829Z,33.60
2023-01-31T01:29:13.302Z,12.90
2023-01-31T01:31:41.772Z,11.60
2023-01-31T01:34:16.027Z,18.50
2023-01-31T01:36:47.550Z,15.10
2023-01-31T01:39:18.277Z,19.40
2023-01-31T01:41:47.011Z,13.50
2023-01-31T01:44:48.556Z,21.30
2023-01-31T01:47:41.237Z,17.00
2023-01-31T01:50:27.624Z,13.20
2023-01-31T01:53:11.083Z,14.60
2023-01-31T01:55:44.645Z,18.20
2023-01-31T01:58:32.518Z,15.70
2023-01-31T02:01:00.771Z,10.40
2023-01-31T02:03:28.930Z,11.80
2023-01-31T02:06:04.840Z,13.10
2023-01-31T02:08:36.154Z,14.40
2023-01-31T02:11:08.336Z,13.50
2023-01-31T02:13:39.246Z,8.90
2023-01-31T02:16:07.379Z,13.50
2023-01-31T02:18:35.797Z,18.10
2023-01-31T02:21:12.470Z,15.10
2023-01-31T02:23:59.494Z,19.50
2023-01-31T02:26:39.894Z,14.50
2023-01-31T02:29:52.674Z,12.20
2023-01-31T02:33:03.588Z,12.10
2023-01-31T02:35:51.142Z,12.90
2023-01-31T02:38:45.470Z,13.50
2023-01-31T02:41:41.069Z,13.90
2023-01-31T02:44:55.522Z,12.00
2023-01-31T02:47:40.930Z,20.50
2023-01-31T02:50:24.963Z,23.40
2023-01-31T02:53:01.089Z,14.70
2023-01-31T02:55:59.601Z,14.80
2023-01-31T02:58:31.671Z,15.50
2023-01-31T03:01:04.199Z,12.10
2023-01-31T03:03:36.237Z,15.30
2023-01-31T03:06:10.950Z,18.20
2023-01-31T03:08:43.735Z,18.60
2023-01-31T03:11:12.421Z,15.80
2023-01-31T03:14:01.944Z,16.30
2023-01-31T03:17:18.419Z,11.20
2023-01-31T03:19:58.473Z,14.40
2023-01-31T03:22:35.580Z,14.00
2023-01-31T03:25:07.189Z,11.80
2023-01-31T03:27:36.566Z,15.10
2023-01-31T03:30:11.852Z,13.10
2023-01-31T03:32:48.919Z,14.10
2023-01-31T03:35:24.248Z,13.90
2023-01-31T03:38:11.945Z,12.60
2023-01-31T03:41:10.295Z,12.90
2023-01-31T03:43:46.290Z,16.00
2023-01-31T03:46:22.664Z,12.00
2023-01-31T03:48:55.923Z,13.90
2023-01-31T03:51:31.754Z,15.70
2023-01-31T03:54:05.803Z,12.20
2023-01-31T03:56:58.927Z,14.00
2023-01-31T03:59:32.554Z,18.40
2023-01-31T04:02:04.466Z,18.20
2023-01-31T04:04:39.531Z,28.40
2023-01-31T04:07:07.552Z,13.90
2023-01-31T04:09:38.536Z,20.90
2023-01-31T04:12:06.757Z,16.30
2023-01-31T04:14:34.758Z,15.70
2023-01-31T04:17:02.563Z,13.10
2023-01-31T04:19:30.508Z,9.90
2023-01-31T04:21:58.490Z,11.60
2023-01-31T04:24:26.824Z,18.10
2023-01-31T04:26:54.637Z,12.30
2023-01-31T04:29:22.444Z,10.10
2023-01-31T04:31:50.492Z,18.00
2023-01-31T04:34:18.461Z,16.80
2023-01-31T04:36:46.353Z,13.10
2023-01-31T04:39:14.724Z,15.90
2023-01-31T04:41:42.839Z,12.70
2023-01-31T04:44:12.070Z,19.20
2023-01-31T04:46:40.176Z,16.20
2023-01-31T04:49:08.855Z,11.90
2023-01-31T04:51:36.896Z,11.10
2023-01-31T04:54:05.389Z,15.90
2023-01-31T04:56:33.573Z,17.10
2023-01-31T04:59:01.779Z,17.10
2023-01-31T05:01:30.617Z,20.20
2023-01-31T05:03:58.500Z,17.50
2023-01-31T05:06:26.298Z,16.90
2023-01-31T05:08:54.690Z,16.10
2023-01-31T05:11:22.653Z,10.50
2023-01-31T05:13:50.702Z,16.30
2023-01-31T05:16:18.700Z,14.70
2023-01-31T05:18:46.724Z,14.70
2023-01-31T05:21:14.566Z,16.40
2023-01-31T05:23:42.862Z,17.30
2023-01-31T05:26:11.164Z,23.40
2023-01-31T05:28:39.154Z,14.70
2023-01-31T05:31:08.682Z,16.50
2023-01-31T05:33:37.054Z,13.40
2023-01-31T05:36:05.884Z,18.60
2023-01-31T05:38:33.989Z,11.80
2023-01-31T05:41:02.135Z,12.70
2023-01-31T05:43:30.034Z,18.70
2023-01-31T05:45:57.870Z,16.80
2023-01-31T05:48:26.055Z,19.80
2023-01-31T05:50:53.896Z,17.70
2023-01-31T05:53:22.815Z,14.10
2023-01-31T05:55:50.805Z,20.70
2023-01-31T05:58:18.877Z,14.10
2023-01-31T06:00:46.833Z,14.70
2023-01-31T06:03:14.678Z,10.50
2023-01-31T06:05:42.688Z,16.80
2023-01-31T06:08:11.166Z,12.70
2023-01-31T06:10:39.062Z,22.80
2023-01-31T06:13:09.470Z,21.90
2023-01-31T06:15:38.123Z,26.70
2023-01-31T06:18:05.988Z,14.60
2023-01-31T06:20:34.128Z,19.50
2023-01-31T06:23:01.912Z,17.00
2023-01-31T06:25:29.944Z,17.50
2023-01-31T06:27:58.056Z,14.10
2023-01-31T06:30:26.105Z,15.00
2023-01-31T06:32:54.106Z,19.30
2023-01-31T06:35:22.631Z,17.20
2023-01-31T06:37:50.661Z,18.40
2023-01-31T06:40:18.730Z,20.30
2023-01-31T06:42:46.779Z,17.80
2023-01-31T06:45:14.699Z,19.10
2023-01-31T06:47:45.282Z,17.00
2023-01-31T06:50:13.936Z,25.30
2023-01-31T06:52:42.227Z,21.50
2023-01-31T06:55:11.692Z,20.90
2023-01-31T06:57:50.030Z,14.10
2023-01-31T07:00:19.248Z,18.40
2023-01-31T07:02:47.439Z,13.60
2023-01-31T07:05:15.889Z,13.20
2023-01-31T07:07:44.031Z,11.30
2023-01-31T07:10:13.070Z,14.90
2023-01-31T07:12:41.126Z,11.60
2023-01-31T07:15:11.219Z,11.30
2023-01-31T07:17:39.318Z,13.70
2023-01-31T07:20:08.814Z,9.90
2023-01-31T07:22:36.780Z,17.30
2023-01-31T07:25:05.411Z,17.10
2023-01-31T07:27:33.371Z,13.10
2023-01-31T07:30:01.317Z,13.30
2023-01-31T07:32:31.122Z,12.50
2023-01-31T07:34:59.118Z,19.20
2023-01-31T07:37:27.151Z,11.40
2023-01-31T07:39:55.247Z,12.50
2023-01-31T07:42:23.375Z,13.90
2023-01-31T07:44:51.350Z,12.40
2023-01-31T07:47:19.306Z,18.10
2023-01-31T07:49:48.483Z,23.70
2023-01-31T07:52:17.097Z,18.10
2023-01-31T07:54:45.066Z,23.90
2023-01-31T07:57:13.509Z,81.80
2023-01-31T07:59:41.629Z,29.30
2023-01-31T08:02:31.830Z,18.30
2023-01-31T08:05:00.338Z,27.30
2023-01-31T08:07:29.548Z,48.60
2023-01-31T08:09:57.491Z,23.90
2023-01-31T08:12:25.532Z,42.90
2023-01-31T08:14:53.299Z,52.90
2023-01-31T08:17:21.260Z,43.70
2023-01-31T08:19:49.338Z,36.70
2023-01-31T08:22:17.239Z,37.40
2023-01-31T08:24:45.377Z,68.70
2023-01-31T08:27:13.355Z,161.60
2023-01-31T08:29:41.279Z,110.70
2023-01-31T08:32:09.213Z,39.80
2023-01-31T08:34:37.196Z,43.70
2023-01-31T08:37:05.276Z,22.30
2023-01-31T08:39:33.546Z,33.10
2023-01-31T08:42:01.951Z,13.40
2023-01-31T08:44:30.386Z,24.40
2023-01-31T08:47:01.931Z,18.50
2023-01-31T08:49:30.353Z,15.40
2023-01-31T08:51:58.252Z,16.70
2023-01-31T08:54:26.262Z,14.10
2023-01-31T08:56:54.255Z,17.70
2023-01-31T08:59:22.120Z,11.10
2023-01-31T09:01:49.893Z,17.00
2023-01-31T09:04:17.992Z,40.20
2023-01-31T09:06:45.853Z,21.20
2023-01-31T09:09:13.790Z,35.40
2023-01-31T09:11:41.844Z,20.10
2023-01-31T09:14:09.728Z,69.60
2023-01-31T09:16:38.951Z,45.40
2023-01-31T09:19:06.978Z,22.00
2023-01-31T09:21:35.093Z,53.60
2023-01-31T09:24:03.948Z,47.20
2023-01-31T09:26:32.423Z,13.70
2023-01-31T09:29:01.708Z,17.20
2023-01-31T09:31:30.474Z,10.40
2023-01-31T09:33:59.253Z,16.90
2023-01-31T09:36:28.540Z,13.60
2023-01-31T09:38:57.495Z,201.00
2023-01-31T09:41:55.492Z,34.10
2023-01-31T09:44:34.940Z,65.60
2023-01-31T09:47:29.923Z,45.20
2023-01-31T09:50:03.135Z,24.60
2023-01-31T09:52:32.559Z,14.30
2023-01-31T09:55:00.678Z,20.20
2023-01-31T09:57:41.839Z,24.40
2023-01-31T10:00:19.287Z,22.10
2023-01-31T10:03:13.092Z,12.80
2023-01-31T10:05:50.281Z,13.90
2023-01-31T10:08:30.675Z,17.60
2023-01-31T10:11:03.075Z,124.30
2023-01-31T10:13:37.192Z,445.60
2023-01-31T10:16:25.424Z,33.90
2023-01-31T10:19:06.546Z,89.50
2023-01-31T10:21:45.331Z,64.40
2023-01-31T10:24:29.531Z,340.10
2023-01-31T10:27:05.753Z,29.60
2023-01-31T10:29:39.901Z,48.00
2023-01-31T10:32:31.857Z,78.60
2023-01-31T10:35:07.763Z,73.00
2023-01-31T10:37:43.747Z,53.50
2023-01-31T10:40:31.701Z,60.90
2023-01-31T10:43:09.854Z,143.00
2023-01-31T10:45:38.637Z,176.10
2023-01-31T10:48:19.634Z,69.10
2023-01-31T10:50:54.083Z,19.50
2023-01-31T10:53:28.109Z,34.00
2023-01-31T10:56:10.495Z,134.40
2023-01-31T10:58:39.975Z,143.30
2023-01-31T11:01:14.665Z,77.60
2023-01-31T11:03:53.763Z,61.00
2023-01-31T11:06:23.383Z,84.10
2023-01-31T11:08:55.673Z,111.40
2023-01-31T11:11:25.719Z,39.10
2023-01-31T11:13:58.430Z,48.20
2023-01-31T11:16:32.793Z,53.70
2023-01-31T11:19:04.788Z,42.10
2023-01-31T11:21:35.848Z,87.90
2023-01-31T11:24:06.905Z,57.40
2023-01-31T11:26:38.640Z,35.40
2023-01-31T11:29:32.811Z,37.60
2023-01-31T11:32:05.323Z,87.20
2023-01-31T11:34:33.993Z,61.60
2023-01-31T11:37:20.004Z,179.30
2023-01-31T11:39:57.262Z,99.40
2023-01-31T11:42:26.078Z,70.60
2023-01-31T11:45:00.030Z,49.00
2023-01-31T11:47:41.492Z,36.60
2023-01-31T11:50:22.521Z,82.70
2023-01-31T11:52:59.203Z,125.30
2023-01-31T11:55:29.325Z,168.60
2023-01-31T11:57:59.990Z,319.10
2023-01-31T12:00:33.580Z,114.40
2023-01-31T12:03:08.974Z,74.70
2023-01-31T12:05:41.804Z,43.60
2023-01-31T12:08:37.357Z,24.80
2023-01-31T12:11:24.002Z,63.90
2023-01-31T12:13:54.271Z,57.20
2023-01-31T12:16:26.699Z,149.10
2023-01-31T12:19:36.800Z,64.70
2023-01-31T12:22:33.920Z,46.80
2023-01-31T12:25:20.657Z,72.00
2023-01-31T12:28:12.671Z,164.20
2023-01-31T12:31:09.697Z,171.30
2023-01-31T12:34:10.790Z,216.50
2023-01-31T12:37:06.399Z,88.20
2023-01-31T12:42:40.093Z,43.10
2023-01-31T12:45:37.346Z,104.60
2023-01-31T12:48:20.420Z,190.80
2023-01-31T12:51:16.683Z,147.70
2023-01-31T12:53:59.914Z,99.50
2023-01-31T12:56:30.734Z,120.20
2023-01-31T12:59:16.298Z,137.40
2023-01-31T13:04:52.981Z,67.80
2023-01-31T13:07:37.861Z,87.80
2023-01-31T13:10:20.909Z,104.70
2023-01-31T13:12:49.419Z,78.80
2023-01-31T13:15:39.480Z,99.70
2023-01-31T13:18:11.372Z,72.50
2023-01-31T13:20:45.822Z,52.50
2023-01-31T13:23:22.824Z,33.40
2023-01-31T13:26:07.731Z,59.10
2023-01-31T13:28:45.751Z,83.80
2023-01-31T13:31:38.719Z,55.40
2023-01-31T13:34:18.459Z,45.00
2023-01-31T13:36:52.123Z,42.10
2023-01-31T13:39:39.122Z,63.30
2023-01-31T13:42:07.204Z,38.00
2023-01-31T13:44:35.167Z,74.30
2023-01-31T13:47:13.420Z,39.60
2023-01-31T13:49:47.774Z,50.60
2023-01-31T13:52:40.224Z,56.20
2023-01-31T13:55:15.642Z,52.50
2023-01-31T13:58:09.622Z,91.60
2023-01-31T14:00:43.959Z,108.40
2023-01-31T14:03:17.882Z,94.40
2023-01-31T14:05:47.770Z,77.90
2023-01-31T14:08:47.783Z,39.00
2023-01-31T14:11:16.568Z,112.10
2023-01-31T14:13:50.204Z,62.40
2023-01-31T14:16:46.362Z,63.30
2023-01-31T14:19:20.046Z,83.70
2023-01-31T14:22:03.380Z,59.40
2023-01-31T14:24:46.892Z,34.30
2023-01-31T14:27:23.994Z,46.50
2023-01-31T14:30:04.822Z,78.70
2023-01-31T14:32:51.911Z,78.80
2023-01-31T14:35:50.074Z,116.30
2023-01-31T14:38:43.207Z,275.80
2023-01-31T14:41:38.971Z,230.20
2023-01-31T14:44:44.583Z,157.10
2023-01-31T14:47:26.187Z,115.50
2023-01-31T14:50:19.565Z,135.00
2023-01-31T14:53:09.011Z,169.10
2023-01-31T14:56:02.499Z,115.30
2023-01-31T14:58:32.330Z,76.10
2023-01-31T15:01:04.795Z,80.70
2023-01-31T15:03:49.354Z,75.90
2023-01-31T15:06:30.943Z,44.80
2023-01-31T15:09:14.204Z,73.50
2023-01-31T15:11:44.437Z,83.90
2023-01-31T15:14:34.285Z,101.30
2023-01-31T15:17:08.881Z,61.60
2023-01-31T15:19:48.583Z,105.80
2023-01-31T15:22:18.669Z,76.30
2023-01-31T15:24:53.384Z,88.90
2023-01-31T15:27:28.786Z,252.00
2023-01-31T15:32:40.874Z,117.70
2023-01-31T15:35:30.029Z,75.60
2023-01-31T15:38:27.121Z,145.50
2023-01-31T15:41:18.165Z,181.00
2023-01-31T15:43:47.344Z,111.10
2023-01-31T15:46:22.152Z,112.30
2023-01-31T15:48:50.523Z,202.30
2023-01-31T15:51:20.367Z,280.40
2023-01-31T15:53:49.778Z,164.90
2023-01-31T15:56:25.780Z,141.90
2023-01-31T15:58:56.807Z,223.30
2023-01-31T16:01:30.381Z,168.10
2023-01-31T16:04:00.148Z,132.50
2023-01-31T16:06:31.272Z,265.60
2023-01-31T16:09:01.544Z,175.20
2023-01-31T16:11:33.850Z,195.10
2023-01-31T16:14:07.785Z,273.10
2023-01-31T16:16:36.683Z,127.40
2023-01-31T16:19:06.047Z,77.50
2023-01-31T16:21:41.515Z,74.20
2023-01-31T16:24:20.596Z,86.90
2023-01-31T16:26:56.302Z,75.70
2023-01-31T16:29:49.481Z,71.80
2023-01-31T16:32:22.754Z,79.80
2023-01-31T16:35:00.986Z,107.90
2023-01-31T16:37:38.142Z,151.90
2023-01-31T16:40:10.919Z,70.90
2023-01-31T16:42:39.357Z,34.90
2023-01-31T16:45:31.582Z,64.90
2023-01-31T16:48:33.453Z,261.00
2023-01-31T16:51:35.027Z,138.10
2023-01-31T16:54:25.632Z,85.00
2023-01-31T16:57:02.848Z,139.30
2023-01-31T16:59:33.690Z,119.50
2023-01-31T17:02:02.920Z,116.60
2023-01-31T17:04:31.274Z,129.20
2023-01-31T17:07:05.619Z,96.50
2023-01-31T17:09:35.584Z,48.70
2023-01-31T17:12:06.428Z,37.40
2023-01-31T17:14:35.511Z,136.10
2023-01-31T17:17:04.722Z,118.20
2023-01-31T17:19:35.105Z,67.00
2023-01-31T17:22:03.632Z,54.80
2023-01-31T17:24:31.703Z,51.10
2023-01-31T17:26:59.922Z,34.20
2023-01-31T17:29:27.818Z,60.70
2023-01-31T17:31:55.741Z,70.30
2023-01-31T17:34:23.560Z,68.20
2023-01-31T17:36:51.359Z,171.90
2023-01-31T17:39:19.399Z,50.20
2023-01-31T17:41:47.507Z,243.00
2023-01-31T17:44:16.017Z,100.90
2023-01-31T17:46:44.447Z,99.80
2023-01-31T17:49:12.739Z,89.70
2023-01-31T17:51:41.062Z,71.30
2023-01-31T17:54:09.068Z,84.80
2023-01-31T17:56:38.378Z,42.80
2023-01-31T17:59:08.395Z,71.70
2023-01-31T18:01:36.503Z,186.10
2023-01-31T18:04:05.645Z,59.30
2023-01-31T18:06:33.772Z,160.30
2023-01-31T18:09:04.945Z,192.50
2023-01-31T18:11:33.192Z,57.20
2023-01-31T18:14:03.936Z,63.80
2023-01-31T18:16:32.762Z,133.70
2023-01-31T18:19:00.691Z,44.90
2023-01-31T18:21:28.804Z,64.20
2023-01-31T18:23:58.289Z,160.00
2023-01-31T18:26:26.327Z,121.70
2023-01-31T18:28:57.262Z,133.40
2023-01-31T18:31:25.381Z,321.40
2023-01-31T18:33:53.649Z,89.50
2023-01-31T18:36:22.386Z,78.40
2023-01-31T18:38:51.603Z,149.20
2023-01-31T18:41:20.977Z,92.20
2023-01-31T18:43:49.560Z,61.50
2023-01-31T18:46:17.511Z,42.20
2023-01-31T18:48:45.424Z,31.90
2023-01-31T18:51:15.073Z,25.50
2023-01-31T18:53:45.981Z,23.80
2023-01-31T18:56:20.327Z,43.80
2023-01-31T18:58:49.909Z,20.90
2023-01-31T19:01:20.027Z,31.10
2023-01-31T19:03:53.030Z,17.90
2023-01-31T19:06:25.134Z,32.10
2023-01-31T19:08:55.678Z,31.40
2023-01-31T19:11:26.502Z,26.90
2023-01-31T19:13:54.944Z,31.60
2023-01-31T19:16:28.673Z,55.50
2023-01-31T19:18:57.297Z,14.80
2023-01-31T19:21:31.536Z,21.20
2023-01-31T19:24:01.890Z,18.60
2023-01-31T19:26:31.369Z,23.60
2023-01-31T19:29:00.075Z,22.70
2023-01-31T19:31:33.692Z,24.30
2023-01-31T19:34:04.604Z,27.10
2023-01-31T19:36:36.942Z,34.50
2023-01-31T19:39:08.810Z,44.00
2023-01-31T19:41:36.824Z,32.70
2023-01-31T19:44:05.243Z,38.00
2023-01-31T19:46:35.895Z,79.30
2023-01-31T19:49:04.860Z,59.20
2023-01-31T19:51:33.653Z,78.30
2023-01-31T19:54:03.014Z,74.70
2023-01-31T19:56:32.172Z,58.10
2023-01-31T19:59:00.565Z,54.60
2023-01-31T20:01:28.642Z,46.30
2023-01-31T20:03:56.480Z,31.60
2023-01-31T20:06:29.879Z,24.00
2023-01-31T20:09:00.624Z,27.80
2023-01-31T20:11:29.514Z,46.80
2023-01-31T20:13:58.117Z,39.50
2023-01-31T20:16:26.924Z,60.70
2023-01-31T20:18:56.230Z,58.50
2023-01-31T20:21:24.451Z,50.40
2023-01-31T20:23:53.865Z,97.30
2023-01-31T20:26:24.312Z,54.60
2023-01-31T20:28:52.595Z,32.00
2023-01-31T20:31:20.720Z,30.30
2023-01-31T20:33:52.176Z,27.70
2023-01-31T20:36:23.859Z,25.20
2023-01-31T20:38:52.167Z,33.20
2023-01-31T20:41:22.416Z,34.10
2023-01-31T20:43:50.724Z,14.90
2023-01-31T20:46:19.506Z,17.20
2023-01-31T20:48:47.664Z,12.80
2023-01-31T20:51:15.685Z,15.80
2023-01-31T20:53:43.587Z,14.10
2023-01-31T20:56:11.634Z,17.30
2023-01-31T20:58:42.120Z,17.90
2023-01-31T21:01:11.530Z,17.70
2023-01-31T21:03:42.470Z,21.10
2023-01-31T21:06:10.883Z,19.50
2023-01-31T21:08:40.219Z,16.30
2023-01-31T21:11:11.075Z,29.10
2023-01-31T21:13:40.187Z,103.60
2023-01-31T21:16:11.074Z,102.70
2023-01-31T21:18:40.388Z,80.00
2023-01-31T21:21:11.279Z,18.40
2023-01-31T21:23:40.759Z,15.20
2023-01-31T21:26:11.016Z,26.70
2023-01-31T21:28:43.868Z,14.30
2023-01-31T21:31:17.199Z,15.00
2023-01-31T21:33:50.687Z,30.90
2023-01-31T21:36:22.298Z,31.30
2023-01-31T21:38:51.079Z,19.70
2023-01-31T21:41:38.153Z,16.90
2023-01-31T21:44:06.864Z,15.20
2023-01-31T21:46:35.157Z,11.40
2023-01-31T21:49:03.298Z,5.40
2023-01-31T21:51:31.390Z,15.60
2023-01-31T21:53:59.233Z,9.10
2023-01-31T21:56:28.373Z,19.30
2023-01-31T21:58:57.570Z,14.10
2023-01-31T22:01:29.214Z,32.40
2023-01-31T22:03:59.344Z,99.70
2023-01-31T22:06:31.689Z,77.90
2023-01-31T22:09:04.346Z,33.90
2023-01-31T22:11:35.956Z,7.90
2023-01-31T22:14:07.383Z,27.90
2023-01-31T22:16:36.008Z,25.40
2023-01-31T22:19:04.840Z,13.30
2023-01-31T22:21:36.034Z,60.80
2023-01-31T22:24:06.717Z,21.40
2023-01-31T22:26:37.931Z,15.60
2023-01-31T22:29:08.750Z,17.30
2023-01-31T22:31:37.184Z,19.40
2023-01-31T22:34:06.877Z,26.80
2023-01-31T22:36:35.543Z,15.50
2023-01-31T22:39:03.988Z,26.40
2023-01-31T22:41:32.153Z,30.30
2023-01-31T22:44:00.107Z,16.70
2023-01-31T22:46:29.277Z,19.90
2023-01-31T22:48:57.990Z,42.80
2023-01-31T22:51:28.805Z,25.10
2023-01-31T22:53:58.101Z,31.20
2023-01-31T22:56:30.945Z,21.50
2023-01-31T22:59:01.586Z,13.10
2023-01-31T23:01:35.122Z,18.90
2023-01-31T23:04:06.165Z,16.70
2023-01-31T23:06:35.719Z,30.50
2023-01-31T23:09:04.235Z,69.20
2023-01-31T23:11:32.924Z,34.70
2023-01-31T23:14:01.024Z,23.90
2023-01-31T23:16:47.434Z,21.70
2023-01-31T23:19:16.491Z,23.00
2023-01-31T23:21:45.356Z,36.00
2023-01-31T23:24:19.083Z,76.30
2023-01-31T23:26:47.805Z,74.20
2023-01-31T23:29:15.904Z,47.20
2023-01-31T23:31:43.907Z,46.60
2023-01-31T23:34:11.928Z,28.20
2023-01-31T23:36:39.826Z,41.10
2023-01-31T23:39:09.031Z,18.00
2023-01-31T23:41:37.134Z,18.50
2023-01-31T23:44:05.074Z,27.10
2023-01-31T23:46:33.286Z,25.20
2023-01-31T23:49:01.322Z,17.80
2023-01-31T23:51:31.352Z,11.90
2023-01-31T23:54:00.018Z,25.10
2023-01-31T23:56:28.145Z,18.20
2023-01-31T23:58:55.987Z,16.50
